No particular awareness of the weather is required.    There are no Weather-warnings


Meteo18 Weather Cam more information Meteo18 Weather Cam


Thunder radar more information blitzortung!


Rain radar more information rain snow radar


Visit our other weather sites:

Template documentation
and downloads

And another site



Weather Underground History page Text

Daily Summary for July 6, 2017 Units:  Both    English   Metric
« Previous Day
Next Day »
Daily Weekly Monthly Yearly Custom
  High: Low: Average:
Temperature: 94.3 °F /  34.6 °C 63.7 °F /  17.6 °C 79.3 °F /  26.3 °C
Dew Point: 65.5 °F /  18.6 °C 56.8 °F /  13.8 °C 61.5 °F /  16.4 °C
Humidity: 86 % 33 % 58 %
Wind Speed: 8 mph /  12.9 km/h - 1.7 mph /  2.8 km/h
Wind Gust: 11 mph /  17.7 km/h - -
Wind:- - South
Pressure: 30.1 in /  1018.5 hPa 30 in /  1015.5 hPa -
Precipitation: 0 in /  0.0 mm    
Historical Graphs
 
 
Tabular Data for July 6, 2017
Time Temperature Dew Point Pressure Wind Wind Speed Wind Gust Humidity Rainfall Rate (Hourly)
00:02 73.2 °F /  22.9 °C 61.5 °F /  16.4 °C 30 in /  1016.5 hPa NNE 2 mph /  3.2 km/h 2 mph /  3.2 km/h 67 % 0 in /  0.0 mm
00:07 73.2 °F /  22.9 °C 62.1 °F /  16.7 °C 30 in /  1016.5 hPa North 1 mph /  1.6 km/h 2 mph /  3.2 km/h 68 % 0 in /  0.0 mm
00:12 72.9 °F /  22.7 °C 62.1 °F /  16.7 °C 30 in /  1016.5 hPa North 2 mph /  3.2 km/h 2 mph /  3.2 km/h 69 % 0 in /  0.0 mm
00:17 72.7 °F /  22.6 °C 61.5 °F /  16.4 °C 30 in /  1016.5 hPa NNE 2 mph /  3.2 km/h 3 mph /  4.8 km/h 68 % 0 in /  0.0 mm
00:22 72.9 °F /  22.7 °C 61.7 °F /  16.5 °C 30 in /  1016.5 hPa Calm   3 mph /  4.8 km/h 68 % 0 in /  0.0 mm
00:27 72.7 °F /  22.6 °C 61.5 °F /  16.4 °C 30 in /  1016.5 hPa NNE 3 mph /  4.8 km/h 3 mph /  4.8 km/h 68 % 0 in /  0.0 mm
00:32 72 °F /  22.2 °C 61.7 °F /  16.5 °C 30 in /  1016.5 hPa North 1 mph /  1.6 km/h 3 mph /  4.8 km/h 70 % 0 in /  0.0 mm
00:42 71.6 °F /  22.0 °C 61.3 °F /  16.3 °C 30 in /  1016.5 hPa North 1 mph /  1.6 km/h 3 mph /  4.8 km/h 70 % 0 in /  0.0 mm
00:47 71.8 °F /  22.1 °C 61.5 °F /  16.4 °C 30 in /  1016.5 hPa NNW 1 mph /  1.6 km/h 2 mph /  3.2 km/h 70 % 0 in /  0.0 mm
00:52 71.4 °F /  21.9 °C 61.2 °F /  16.2 °C 30 in /  1016.5 hPa NW 2 mph /  3.2 km/h 3 mph /  4.8 km/h 70 % 0 in /  0.0 mm
00:57 70.7 °F /  21.5 °C 61.2 °F /  16.2 °C 30 in /  1016.5 hPa NW 1 mph /  1.6 km/h 3 mph /  4.8 km/h 72 % 0 in /  0.0 mm
01:02 70.3 °F /  21.3 °C 61.3 °F /  16.3 °C 30 in /  1016.5 hPa NW 1 mph /  1.6 km/h 3 mph /  4.8 km/h 73 % 0 in /  0.0 mm
01:07 70.5 °F /  21.4 °C 61 °F /  16.1 °C 30 in /  1016.5 hPa Calm   2 mph /  3.2 km/h 72 % 0 in /  0.0 mm
01:12 70.5 °F /  21.4 °C 60.6 °F /  15.9 °C 30 in /  1016.5 hPa Calm   2 mph /  3.2 km/h 71 % 0 in /  0.0 mm
01:17 70.2 °F /  21.2 °C 61.2 °F /  16.2 °C 30 in /  1016.5 hPa Calm   2 mph /  3.2 km/h 73 % 0 in /  0.0 mm
01:22 69.6 °F /  20.9 °C 60.6 °F /  15.9 °C 30 in /  1016.5 hPa NW 2 mph /  3.2 km/h 2 mph /  3.2 km/h 73 % 0 in /  0.0 mm
01:27 69.6 °F /  20.9 °C 60.6 °F /  15.9 °C 30 in /  1016.5 hPa Calm   2 mph /  3.2 km/h 73 % 0 in /  0.0 mm
01:32 69.6 °F /  20.9 °C 60.6 °F /  15.9 °C 30 in /  1016.5 hPa Calm   2 mph /  3.2 km/h 73 % 0 in /  0.0 mm
01:37 69.6 °F /  20.9 °C 61 °F /  16.1 °C 30 in /  1016.5 hPa Calm   2 mph /  3.2 km/h 74 % 0 in /  0.0 mm
01:42 69.4 °F /  20.8 °C 61.2 °F /  16.2 °C 30 in /  1016.5 hPa North 1 mph /  1.6 km/h 2 mph /  3.2 km/h 75 % 0 in /  0.0 mm
01:47 69.1 °F /  20.6 °C 61.2 °F /  16.2 °C 30 in /  1016.5 hPa Calm   2 mph /  3.2 km/h 76 % 0 in /  0.0 mm
01:52 68.7 °F /  20.4 °C 60.8 °F /  16.0 °C 30 in /  1016.5 hPa Calm   2 mph /  3.2 km/h 76 % 0 in /  0.0 mm
01:57 68.4 °F /  20.2 °C 60.8 °F /  16.0 °C 30 in /  1016.5 hPa Calm   2 mph /  3.2 km/h 77 % 0 in /  0.0 mm
02:02 68 °F /  20.0 °C 60.8 °F /  16.0 °C 30 in /  1016.5 hPa Calm   1 mph /  1.6 km/h 78 % 0 in /  0.0 mm
02:07 67.6 °F /  19.8 °C 61 °F /  16.1 °C 30 in /  1016.5 hPa Calm   1 mph /  1.6 km/h 79 % 0 in /  0.0 mm
02:12 67.5 °F /  19.7 °C 60.4 °F /  15.8 °C 30 in /  1016.5 hPa Calm     78 % 0 in /  0.0 mm
02:17 67.6 °F /  19.8 °C 60.6 °F /  15.9 °C 30 in /  1016.5 hPa Calm   1 mph /  1.6 km/h 78 % 0 in /  0.0 mm
02:22 67.6 °F /  19.8 °C 60.6 °F /  15.9 °C 30 in /  1016.5 hPa Calm   1 mph /  1.6 km/h 78 % 0 in /  0.0 mm
02:27 67.5 °F /  19.7 °C 60.8 °F /  16.0 °C 30 in /  1016.5 hPa Calm   1 mph /  1.6 km/h 79 % 0 in /  0.0 mm
02:32 67.3 °F /  19.6 °C 60.6 °F /  15.9 °C 30 in /  1016.5 hPa Calm     79 % 0 in /  0.0 mm
02:37 66.9 °F /  19.4 °C 60.3 °F /  15.7 °C 30 in /  1016.5 hPa Calm     79 % 0 in /  0.0 mm
02:42 66.6 °F /  19.2 °C 60.3 °F /  15.7 °C 30 in /  1016.5 hPa Calm     80 % 0 in /  0.0 mm
02:47 66.4 °F /  19.1 °C 60.4 °F /  15.8 °C 30 in /  1016.5 hPa Calm     81 % 0 in /  0.0 mm
02:52 66.6 °F /  19.2 °C 60.3 °F /  15.7 °C 30 in /  1016.5 hPa Calm     80 % 0 in /  0.0 mm
02:57 66.9 °F /  19.4 °C 60.3 °F /  15.7 °C 30 in /  1016.5 hPa Calm     79 % 0 in /  0.0 mm
03:02 67.3 °F /  19.6 °C 60.3 °F /  15.7 °C 30 in /  1016.5 hPa Calm     78 % 0 in /  0.0 mm
03:07 66.9 °F /  19.4 °C 60.3 °F /  15.7 °C 30 in /  1016.5 hPa Calm     79 % 0 in /  0.0 mm
03:12 66.6 °F /  19.2 °C 59.9 °F /  15.5 °C 30 in /  1016.5 hPa Calm     79 % 0 in /  0.0 mm
03:17 66.4 °F /  19.1 °C 60.1 °F /  15.6 °C 30 in /  1016.5 hPa Calm   1 mph /  1.6 km/h 80 % 0 in /  0.0 mm
03:22 65.8 °F /  18.8 °C 59.9 °F /  15.5 °C 30 in /  1016.5 hPa Calm   1 mph /  1.6 km/h 81 % 0 in /  0.0 mm
03:27 65.5 °F /  18.6 °C 59.9 °F /  15.5 °C 30 in /  1016.5 hPa Calm   1 mph /  1.6 km/h 82 % 0 in /  0.0 mm
03:32 65.1 °F /  18.4 °C 59.5 °F /  15.3 °C 30 in /  1016.5 hPa Calm     82 % 0 in /  0.0 mm
03:37 64.9 °F /  18.3 °C 59.7 °F /  15.4 °C 30 in /  1016.8 hPa Calm     83 % 0 in /  0.0 mm
03:42 64.9 °F /  18.3 °C 59.7 °F /  15.4 °C 30 in /  1016.8 hPa Calm     83 % 0 in /  0.0 mm
03:47 64.9 °F /  18.3 °C 59.7 °F /  15.4 °C 30 in /  1016.8 hPa Calm     83 % 0 in /  0.0 mm
03:52 64.9 °F /  18.3 °C 59.7 °F /  15.4 °C 30 in /  1016.8 hPa Calm     83 % 0 in /  0.0 mm
03:57 64.9 °F /  18.3 °C 59.7 °F /  15.4 °C 30 in /  1016.8 hPa Calm     83 % 0 in /  0.0 mm
04:02 64.9 °F /  18.3 °C 59.9 °F /  15.5 °C 30 in /  1016.5 hPa Calm     84 % 0 in /  0.0 mm
04:07 64.8 °F /  18.2 °C 59.9 °F /  15.5 °C 30 in /  1016.8 hPa Calm     84 % 0 in /  0.0 mm
04:12 64.8 °F /  18.2 °C 59.9 °F /  15.5 °C 30 in /  1016.5 hPa Calm     84 % 0 in /  0.0 mm
04:17 64.6 °F /  18.1 °C 59.7 °F /  15.4 °C 30 in /  1016.8 hPa Calm     84 % 0 in /  0.0 mm
04:22 64.2 °F /  17.9 °C 59.5 °F /  15.3 °C 30 in /  1016.5 hPa Calm     85 % 0 in /  0.0 mm
04:27 64 °F /  17.8 °C 59.4 °F /  15.2 °C 30 in /  1016.5 hPa Calm     85 % 0 in /  0.0 mm
04:32 64.6 °F /  18.1 °C 59.9 °F /  15.5 °C 30 in /  1016.5 hPa Calm     85 % 0 in /  0.0 mm
04:37 64.8 °F /  18.2 °C 59.9 °F /  15.5 °C 30 in /  1016.5 hPa Calm     84 % 0 in /  0.0 mm
04:42 64.9 °F /  18.3 °C 59.9 °F /  15.5 °C 30 in /  1016.5 hPa Calm     84 % 0 in /  0.0 mm
04:47 64.6 °F /  18.1 °C 59.7 °F /  15.4 °C 30 in /  1016.5 hPa Calm     84 % 0 in /  0.0 mm
04:52 64.6 °F /  18.1 °C 59.9 °F /  15.5 °C 30 in /  1016.5 hPa Calm     85 % 0 in /  0.0 mm
04:57 64.8 °F /  18.2 °C 59.9 °F /  15.5 °C 30 in /  1016.5 hPa Calm     84 % 0 in /  0.0 mm
05:02 64.8 °F /  18.2 °C 59.9 °F /  15.5 °C 30 in /  1016.5 hPa Calm     84 % 0 in /  0.0 mm
05:12 64.2 °F /  17.9 °C 59.4 °F /  15.2 °C 30 in /  1016.8 hPa Calm     84 % 0 in /  0.0 mm
05:17 63.7 °F /  17.6 °C 59.4 °F /  15.2 °C 30 in /  1016.8 hPa Calm     86 % 0 in /  0.0 mm
05:22 63.9 °F /  17.7 °C 59.5 °F /  15.3 °C 30 in /  1016.8 hPa Calm     86 % 0 in /  0.0 mm
05:27 64 °F /  17.8 °C 59.7 °F /  15.4 °C 30 in /  1016.8 hPa Calm     86 % 0 in /  0.0 mm
05:32 64.8 °F /  18.2 °C 59.9 °F /  15.5 °C 30 in /  1017.2 hPa Calm     84 % 0 in /  0.0 mm
05:37 64.6 °F /  18.1 °C 59.7 °F /  15.4 °C 30 in /  1017.2 hPa Calm     84 % 0 in /  0.0 mm
05:42 64.4 °F /  18.0 °C 59.5 °F /  15.3 °C 30 in /  1017.2 hPa Calm     84 % 0 in /  0.0 mm
05:47 64 °F /  17.8 °C 59.4 °F /  15.2 °C 30 in /  1017.2 hPa Calm     85 % 0 in /  0.0 mm
05:52 64.6 °F /  18.1 °C 59.9 °F /  15.5 °C 30 in /  1017.2 hPa Calm     85 % 0 in /  0.0 mm
05:57 64.9 °F /  18.3 °C 59.9 °F /  15.5 °C 30 in /  1017.2 hPa Calm     84 % 0 in /  0.0 mm
06:02 64.8 °F /  18.2 °C 59.9 °F /  15.5 °C 30 in /  1017.2 hPa Calm     84 % 0 in /  0.0 mm
06:07 64.4 °F /  18.0 °C 59.7 °F /  15.4 °C 30 in /  1017.2 hPa Calm     85 % 0 in /  0.0 mm
06:12 64.6 °F /  18.1 °C 59.9 °F /  15.5 °C 30 in /  1017.2 hPa Calm     85 % 0 in /  0.0 mm
06:17 64.4 °F /  18.0 °C 59.7 °F /  15.4 °C 30.1 in /  1017.5 hPa Calm     85 % 0 in /  0.0 mm
06:22 64.2 °F /  17.9 °C 59.5 °F /  15.3 °C 30.1 in /  1017.5 hPa Calm     85 % 0 in /  0.0 mm
06:27 64.2 °F /  17.9 °C 59.9 °F /  15.5 °C 30.1 in /  1017.5 hPa Calm     86 % 0 in /  0.0 mm
06:32 64.6 °F /  18.1 °C 60.3 °F /  15.7 °C 30.1 in /  1017.5 hPa Calm     86 % 0 in /  0.0 mm
06:37 65.1 °F /  18.4 °C 60.1 °F /  15.6 °C 30.1 in /  1017.5 hPa Calm     84 % 0 in /  0.0 mm
06:42 65.1 °F /  18.4 °C 60.1 °F /  15.6 °C 30.1 in /  1017.5 hPa Calm     84 % 0 in /  0.0 mm
06:52 64.8 °F /  18.2 °C 59.9 °F /  15.5 °C 30 in /  1017.2 hPa Calm     84 % 0 in /  0.0 mm
07:02 64.8 °F /  18.2 °C 60.1 °F /  15.6 °C 30.1 in /  1017.5 hPa Calm     85 % 0 in /  0.0 mm
07:07 65.1 °F /  18.4 °C 60.4 °F /  15.8 °C 30.1 in /  1017.5 hPa Calm     85 % 0 in /  0.0 mm
07:12 65.7 °F /  18.7 °C 60.6 °F /  15.9 °C 30.1 in /  1017.5 hPa Calm     84 % 0 in /  0.0 mm
07:17 66.6 °F /  19.2 °C 61.5 °F /  16.4 °C 30.1 in /  1017.5 hPa Calm     84 % 0 in /  0.0 mm
07:22 67.3 °F /  19.6 °C 61.2 °F /  16.2 °C 30.1 in /  1017.5 hPa Calm     81 % 0 in /  0.0 mm
07:27 67.8 °F /  19.9 °C 61.7 °F /  16.5 °C 30.1 in /  1017.8 hPa Calm   2 mph /  3.2 km/h 81 % 0 in /  0.0 mm
07:32 68.5 °F /  20.3 °C 62.8 °F /  17.1 °C 30.1 in /  1017.5 hPa SW 1 mph /  1.6 km/h 2 mph /  3.2 km/h 82 % 0 in /  0.0 mm
07:37 69.1 °F /  20.6 °C 63.3 °F /  17.4 °C 30.1 in /  1017.5 hPa Calm   2 mph /  3.2 km/h 82 % 0 in /  0.0 mm
07:42 69.1 °F /  20.6 °C 63 °F /  17.2 °C 30.1 in /  1017.5 hPa Calm   1 mph /  1.6 km/h 81 % 0 in /  0.0 mm
07:47 69.4 °F /  20.8 °C 63 °F /  17.2 °C 30.1 in /  1017.5 hPa Calm   1 mph /  1.6 km/h 80 % 0 in /  0.0 mm
07:52 70.2 °F /  21.2 °C 63.7 °F /  17.6 °C 30.1 in /  1017.5 hPa Calm   1 mph /  1.6 km/h 80 % 0 in /  0.0 mm
07:57 71.2 °F /  21.8 °C 63.7 °F /  17.6 °C 30.1 in /  1017.5 hPa Calm     77 % 0 in /  0.0 mm
08:02 71.6 °F /  22.0 °C 63 °F /  17.2 °C 30.1 in /  1017.5 hPa Calm     74 % 0 in /  0.0 mm
08:07 71.4 °F /  21.9 °C 63.1 °F /  17.3 °C 30.1 in /  1017.5 hPa Calm   1 mph /  1.6 km/h 75 % 0 in /  0.0 mm
08:12 71.8 °F /  22.1 °C 63 °F /  17.2 °C 30.1 in /  1017.5 hPa Calm   1 mph /  1.6 km/h 74 % 0 in /  0.0 mm
08:17 71.2 °F /  21.8 °C 63 °F /  17.2 °C 30.1 in /  1017.5 hPa Calm   1 mph /  1.6 km/h 75 % 0 in /  0.0 mm
08:22 70.9 °F /  21.6 °C 63.3 °F /  17.4 °C 30.1 in /  1017.5 hPa Calm     77 % 0 in /  0.0 mm
08:27 71.1 °F /  21.7 °C 63.1 °F /  17.3 °C 30.1 in /  1017.8 hPa Calm     76 % 0 in /  0.0 mm
08:32 71.4 °F /  21.9 °C 63.9 °F /  17.7 °C 30.1 in /  1017.5 hPa SE 1 mph /  1.6 km/h   77 % 0 in /  0.0 mm
08:42 71.4 °F /  21.9 °C 63.1 °F /  17.3 °C 30.1 in /  1017.8 hPa SE 1 mph /  1.6 km/h 1 mph /  1.6 km/h 75 % 0 in /  0.0 mm
08:52 73 °F /  22.8 °C 63.9 °F /  17.7 °C 30.1 in /  1017.8 hPa Calm   1 mph /  1.6 km/h 73 % 0 in /  0.0 mm
08:57 73.9 °F /  23.3 °C 64.4 °F /  18.0 °C 30.1 in /  1017.8 hPa SE 1 mph /  1.6 km/h 2 mph /  3.2 km/h 72 % 0 in /  0.0 mm
09:02 74.3 °F /  23.5 °C 63.9 °F /  17.7 °C 30.1 in /  1017.8 hPa ENE 1 mph /  1.6 km/h 2 mph /  3.2 km/h 70 % 0 in /  0.0 mm
09:07 74.7 °F /  23.7 °C 64.6 °F /  18.1 °C 30.1 in /  1017.8 hPa SE 1 mph /  1.6 km/h 3 mph /  4.8 km/h 71 % 0 in /  0.0 mm
09:12 75.4 °F /  24.1 °C 64.6 °F /  18.1 °C 30.1 in /  1017.8 hPa South 2 mph /  3.2 km/h 3 mph /  4.8 km/h 69 % 0 in /  0.0 mm
09:17 75 °F /  23.9 °C 64.2 °F /  17.9 °C 30.1 in /  1017.8 hPa Calm   3 mph /  4.8 km/h 69 % 0 in /  0.0 mm
09:22 75.4 °F /  24.1 °C 64 °F /  17.8 °C 30.1 in /  1017.8 hPa SW 2 mph /  3.2 km/h 4 mph /  6.4 km/h 68 % 0 in /  0.0 mm
09:27 75.6 °F /  24.2 °C 64.2 °F /  17.9 °C 30.1 in /  1018.2 hPa Calm   4 mph /  6.4 km/h 68 % 0 in /  0.0 mm
09:32 76.1 °F /  24.5 °C 64.8 °F /  18.2 °C 30.1 in /  1018.2 hPa SSW 2 mph /  3.2 km/h 3 mph /  4.8 km/h 68 % 0 in /  0.0 mm
09:37 76.3 °F /  24.6 °C 64.9 °F /  18.3 °C 30.1 in /  1018.2 hPa South 1 mph /  1.6 km/h 3 mph /  4.8 km/h 68 % 0 in /  0.0 mm
09:42 76.6 °F /  24.8 °C 64.4 °F /  18.0 °C 30.1 in /  1018.2 hPa SW 1 mph /  1.6 km/h 3 mph /  4.8 km/h 66 % 0 in /  0.0 mm
09:47 77.4 °F /  25.2 °C 64.8 °F /  18.2 °C 30.1 in /  1018.2 hPa Calm   3 mph /  4.8 km/h 65 % 0 in /  0.0 mm
09:52 77.9 °F /  25.5 °C 64.2 °F /  17.9 °C 30.1 in /  1018.2 hPa South 2 mph /  3.2 km/h 3 mph /  4.8 km/h 63 % 0 in /  0.0 mm
09:57 78.4 °F /  25.8 °C 64.4 °F /  18.0 °C 30.1 in /  1018.5 hPa WSW 2 mph /  3.2 km/h 4 mph /  6.4 km/h 62 % 0 in /  0.0 mm
10:02 79.2 °F /  26.2 °C 64 °F /  17.8 °C 30.1 in /  1018.5 hPa SW 5 mph /  8.0 km/h 5 mph /  8.0 km/h 60 % 0 in /  0.0 mm
10:07 79.2 °F /  26.2 °C 64 °F /  17.8 °C 30.1 in /  1018.5 hPa SW 3 mph /  4.8 km/h 6 mph /  9.7 km/h 60 % 0 in /  0.0 mm
10:12 79.2 °F /  26.2 °C 63.1 °F /  17.3 °C 30.1 in /  1018.5 hPa SW 3 mph /  4.8 km/h 6 mph /  9.7 km/h 58 % 0 in /  0.0 mm
10:17 79.2 °F /  26.2 °C 61.5 °F /  16.4 °C 30.1 in /  1018.5 hPa SW 3 mph /  4.8 km/h 6 mph /  9.7 km/h 55 % 0 in /  0.0 mm
10:22 79.7 °F /  26.5 °C 61.5 °F /  16.4 °C 30.1 in /  1018.5 hPa SW 2 mph /  3.2 km/h 6 mph /  9.7 km/h 54 % 0 in /  0.0 mm
10:27 80.4 °F /  26.9 °C 57.7 °F /  14.3 °C 30.1 in /  1018.5 hPa SW 6 mph /  9.7 km/h 7 mph /  11.3 km/h 46 % 0 in /  0.0 mm
10:32 80.8 °F /  27.1 °C 56.8 °F /  13.8 °C 30.1 in /  1018.2 hPa West 3 mph /  4.8 km/h 8 mph /  12.9 km/h 44 % 0 in /  0.0 mm
10:42 80.8 °F /  27.1 °C 58.1 °F /  14.5 °C 30.1 in /  1018.2 hPa SW 3 mph /  4.8 km/h 10 mph /  16.1 km/h 46 % 0 in /  0.0 mm
10:47 80.8 °F /  27.1 °C 58.6 °F /  14.8 °C 30.1 in /  1018.2 hPa SW 3 mph /  4.8 km/h 10 mph /  16.1 km/h 47 % 0 in /  0.0 mm
11:17 82.9 °F /  28.3 °C 60.1 °F /  15.6 °C 30.1 in /  1018.2 hPa West 4 mph /  6.4 km/h 8 mph /  12.9 km/h 46 % 0 in /  0.0 mm
11:27 83.5 °F /  28.6 °C 58.6 °F /  14.8 °C 30.1 in /  1018.2 hPa SW 4 mph /  6.4 km/h 8 mph /  12.9 km/h 43 % 0 in /  0.0 mm
11:32 83.8 °F /  28.8 °C 59 °F /  15.0 °C 30.1 in /  1018.2 hPa Calm   8 mph /  12.9 km/h 43 % 0 in /  0.0 mm
11:37 84.2 °F /  29.0 °C 59.4 °F /  15.2 °C 30.1 in /  1018.2 hPa WSW 2 mph /  3.2 km/h 8 mph /  12.9 km/h 43 % 0 in /  0.0 mm
11:42 84.4 °F /  29.1 °C 60.1 °F /  15.6 °C 30.1 in /  1018.2 hPa WSW 5 mph /  8.0 km/h 7 mph /  11.3 km/h 44 % 0 in /  0.0 mm
11:47 84.6 °F /  29.2 °C 62.8 °F /  17.1 °C 30.1 in /  1017.8 hPa SSW 4 mph /  6.4 km/h 7 mph /  11.3 km/h 48 % 0 in /  0.0 mm
11:52 84.7 °F /  29.3 °C 60.4 °F /  15.8 °C 30.1 in /  1017.8 hPa West 5 mph /  8.0 km/h 6 mph /  9.7 km/h 44 % 0 in /  0.0 mm
11:57 84.9 °F /  29.4 °C 61.9 °F /  16.6 °C 30.1 in /  1018.2 hPa South 5 mph /  8.0 km/h 7 mph /  11.3 km/h 46 % 0 in /  0.0 mm
12:02 85.3 °F /  29.6 °C 62.2 °F /  16.8 °C 30.1 in /  1018.2 hPa West 3 mph /  4.8 km/h 7 mph /  11.3 km/h 46 % 0 in /  0.0 mm
12:07 85.3 °F /  29.6 °C 59 °F /  15.0 °C 30.1 in /  1018.2 hPa South 2 mph /  3.2 km/h 7 mph /  11.3 km/h 41 % 0 in /  0.0 mm
12:12 85.6 °F /  29.8 °C 61.2 °F /  16.2 °C 30.1 in /  1018.2 hPa SW 5 mph /  8.0 km/h 7 mph /  11.3 km/h 44 % 0 in /  0.0 mm
12:17 85.6 °F /  29.8 °C 58.5 °F /  14.7 °C 30.1 in /  1018.2 hPa SW 3 mph /  4.8 km/h 6 mph /  9.7 km/h 40 % 0 in /  0.0 mm
12:27 86.7 °F /  30.4 °C 58.8 °F /  14.9 °C 30.1 in /  1017.8 hPa ESE 2 mph /  3.2 km/h 6 mph /  9.7 km/h 39 % 0 in /  0.0 mm
12:32 87.3 °F /  30.7 °C 59.4 °F /  15.2 °C 30.1 in /  1017.8 hPa Calm   5 mph /  8.0 km/h 39 % 0 in /  0.0 mm
12:42 87.8 °F /  31.0 °C 59 °F /  15.0 °C 30.1 in /  1017.8 hPa Calm   5 mph /  8.0 km/h 38 % 0 in /  0.0 mm
12:47 87.8 °F /  31.0 °C 59 °F /  15.0 °C 30.1 in /  1017.8 hPa South 1 mph /  1.6 km/h 5 mph /  8.0 km/h 38 % 0 in /  0.0 mm
12:52 87.6 °F /  30.9 °C 58.1 °F /  14.5 °C 30.1 in /  1017.8 hPa West 1 mph /  1.6 km/h 6 mph /  9.7 km/h 37 % 0 in /  0.0 mm
12:57 88.3 °F /  31.3 °C 57.9 °F /  14.4 °C 30.1 in /  1017.8 hPa Calm   6 mph /  9.7 km/h 36 % 0 in /  0.0 mm
13:02 89.1 °F /  31.7 °C 58.6 °F /  14.8 °C 30.1 in /  1017.8 hPa Calm   6 mph /  9.7 km/h 36 % 0 in /  0.0 mm
13:07 88.7 °F /  31.5 °C 59 °F /  15.0 °C 30.1 in /  1017.8 hPa SW 2 mph /  3.2 km/h 4 mph /  6.4 km/h 37 % 0 in /  0.0 mm
13:12 88.7 °F /  31.5 °C 58.3 °F /  14.6 °C 30.1 in /  1017.8 hPa Calm   5 mph /  8.0 km/h 36 % 0 in /  0.0 mm
13:17 89.4 °F /  31.9 °C 59 °F /  15.0 °C 30.1 in /  1017.8 hPa SSE 1 mph /  1.6 km/h 5 mph /  8.0 km/h 36 % 0 in /  0.0 mm
13:22 90 °F /  32.2 °C 59.4 °F /  15.2 °C 30.1 in /  1017.8 hPa Calm   5 mph /  8.0 km/h 36 % 0 in /  0.0 mm
13:27 90.1 °F /  32.3 °C 59.5 °F /  15.3 °C 30.1 in /  1017.5 hPa Calm   5 mph /  8.0 km/h 36 % 0 in /  0.0 mm
13:32 89.6 °F /  32.0 °C 58.3 °F /  14.6 °C 30.1 in /  1017.5 hPa Calm   5 mph /  8.0 km/h 35 % 0 in /  0.0 mm
13:37 89.4 °F /  31.9 °C 60.4 °F /  15.8 °C 30.1 in /  1017.8 hPa SE 2 mph /  3.2 km/h 6 mph /  9.7 km/h 38 % 0 in /  0.0 mm
13:42 90.3 °F /  32.4 °C 60.4 °F /  15.8 °C 30.1 in /  1017.5 hPa SSW 7 mph /  11.3 km/h 7 mph /  11.3 km/h 37 % 0 in /  0.0 mm
13:47 89.8 °F /  32.1 °C 60.8 °F /  16.0 °C 30.1 in /  1017.5 hPa SW 6 mph /  9.7 km/h 10 mph /  16.1 km/h 38 % 0 in /  0.0 mm
13:52 89.4 °F /  31.9 °C 59.7 °F /  15.4 °C 30.1 in /  1017.5 hPa SW 3 mph /  4.8 km/h 10 mph /  16.1 km/h 37 % 0 in /  0.0 mm
13:57 90 °F /  32.2 °C 58.6 °F /  14.8 °C 30.1 in /  1017.5 hPa East 1 mph /  1.6 km/h 10 mph /  16.1 km/h 35 % 0 in /  0.0 mm
14:02 90.7 °F /  32.6 °C 60.1 °F /  15.6 °C 30.1 in /  1017.5 hPa ESE 4 mph /  6.4 km/h 7 mph /  11.3 km/h 36 % 0 in /  0.0 mm
14:07 91 °F /  32.8 °C 58.8 °F /  14.9 °C 30.1 in /  1017.5 hPa Calm   7 mph /  11.3 km/h 34 % 0 in /  0.0 mm
14:12 92.3 °F /  33.5 °C 59.9 °F /  15.5 °C 30.1 in /  1017.5 hPa Calm   6 mph /  9.7 km/h 34 % 0 in /  0.0 mm
14:17 92.1 °F /  33.4 °C 62.8 °F /  17.1 °C 30.1 in /  1017.5 hPa SW 4 mph /  6.4 km/h 6 mph /  9.7 km/h 38 % 0 in /  0.0 mm
14:22 91 °F /  32.8 °C 59.5 °F /  15.3 °C 30.1 in /  1017.5 hPa WSW 7 mph /  11.3 km/h 8 mph /  12.9 km/h 35 % 0 in /  0.0 mm
14:27 90.3 °F /  32.4 °C 59.7 °F /  15.4 °C 30.1 in /  1017.5 hPa WSW 2 mph /  3.2 km/h 8 mph /  12.9 km/h 36 % 0 in /  0.0 mm
14:32 90.9 °F /  32.7 °C 60.3 °F /  15.7 °C 30 in /  1017.2 hPa SSW 2 mph /  3.2 km/h 8 mph /  12.9 km/h 36 % 0 in /  0.0 mm
14:37 91 °F /  32.8 °C 61.9 °F /  16.6 °C 30 in /  1017.2 hPa South 5 mph /  8.0 km/h 7 mph /  11.3 km/h 38 % 0 in /  0.0 mm
14:42 91.4 °F /  33.0 °C 63.7 °F /  17.6 °C 30 in /  1017.2 hPa SW 5 mph /  8.0 km/h 6 mph /  9.7 km/h 40 % 0 in /  0.0 mm
14:47 91.6 °F /  33.1 °C 59.2 °F /  15.1 °C 30 in /  1017.2 hPa SE 1 mph /  1.6 km/h 6 mph /  9.7 km/h 34 % 0 in /  0.0 mm
14:52 91.8 °F /  33.2 °C 61 °F /  16.1 °C 30 in /  1017.2 hPa ESE 4 mph /  6.4 km/h 6 mph /  9.7 km/h 36 % 0 in /  0.0 mm
14:57 92.1 °F /  33.4 °C 60.4 °F /  15.8 °C 30 in /  1017.2 hPa SE 2 mph /  3.2 km/h 6 mph /  9.7 km/h 35 % 0 in /  0.0 mm
15:02 92.1 °F /  33.4 °C 60.4 °F /  15.8 °C 30 in /  1017.2 hPa SW 1 mph /  1.6 km/h 6 mph /  9.7 km/h 35 % 0 in /  0.0 mm
15:12 92.7 °F /  33.7 °C 61 °F /  16.1 °C 30 in /  1016.8 hPa ESE 3 mph /  4.8 km/h 5 mph /  8.0 km/h 35 % 0 in /  0.0 mm
15:17 93 °F /  33.9 °C 60.4 °F /  15.8 °C 30 in /  1016.8 hPa ENE 3 mph /  4.8 km/h 5 mph /  8.0 km/h 34 % 0 in /  0.0 mm
15:22 93.6 °F /  34.2 °C 61 °F /  16.1 °C 30 in /  1016.5 hPa East 1 mph /  1.6 km/h 10 mph /  16.1 km/h 34 % 0 in /  0.0 mm
15:27 93.9 °F /  34.4 °C 61.3 °F /  16.3 °C 30 in /  1016.5 hPa SE 2 mph /  3.2 km/h 10 mph /  16.1 km/h 34 % 0 in /  0.0 mm
15:32 93.7 °F /  34.3 °C 62.8 °F /  17.1 °C 30 in /  1016.5 hPa South 5 mph /  8.0 km/h 10 mph /  16.1 km/h 36 % 0 in /  0.0 mm
15:37 93.2 °F /  34.0 °C 60.6 °F /  15.9 °C 30 in /  1016.1 hPa Calm   9 mph /  14.5 km/h 34 % 0 in /  0.0 mm
15:42 93.9 °F /  34.4 °C 62.1 °F /  16.7 °C 30 in /  1016.1 hPa East 7 mph /  11.3 km/h 8 mph /  12.9 km/h 35 % 0 in /  0.0 mm
15:52 93.9 °F /  34.4 °C 60.4 °F /  15.8 °C 30 in /  1016.1 hPa ESE 6 mph /  9.7 km/h 11 mph /  17.7 km/h 33 % 0 in /  0.0 mm
15:57 94.1 °F /  34.5 °C 60.6 °F /  15.9 °C 30 in /  1016.1 hPa SE 6 mph /  9.7 km/h 11 mph /  17.7 km/h 33 % 0 in /  0.0 mm
16:02 94.3 °F /  34.6 °C 61.5 °F /  16.4 °C 30 in /  1016.1 hPa SE 5 mph /  8.0 km/h 10 mph /  16.1 km/h 34 % 0 in /  0.0 mm
16:07 93.9 °F /  34.4 °C 60.4 °F /  15.8 °C 30 in /  1016.1 hPa South 4 mph /  6.4 km/h 10 mph /  16.1 km/h 33 % 0 in /  0.0 mm
16:12 93.4 °F /  34.1 °C 59.9 °F /  15.5 °C 30 in /  1016.1 hPa SSE 4 mph /  6.4 km/h 10 mph /  16.1 km/h 33 % 0 in /  0.0 mm
16:17 92.8 °F /  33.8 °C 61.9 °F /  16.6 °C 30 in /  1016.1 hPa ENE 4 mph /  6.4 km/h 10 mph /  16.1 km/h 36 % 0 in /  0.0 mm
16:22 93 °F /  33.9 °C 59.7 °F /  15.4 °C 30 in /  1016.1 hPa SE 3 mph /  4.8 km/h 10 mph /  16.1 km/h 33 % 0 in /  0.0 mm
16:27 92.7 °F /  33.7 °C 60.3 °F /  15.7 °C 30 in /  1016.1 hPa South 3 mph /  4.8 km/h 9 mph /  14.5 km/h 34 % 0 in /  0.0 mm
16:32 91.8 °F /  33.2 °C 60.3 °F /  15.7 °C 30 in /  1016.1 hPa SSE 3 mph /  4.8 km/h 9 mph /  14.5 km/h 35 % 0 in /  0.0 mm
16:37 91.4 °F /  33.0 °C 59 °F /  15.0 °C 30 in /  1016.1 hPa SE 6 mph /  9.7 km/h 8 mph /  12.9 km/h 34 % 0 in /  0.0 mm
16:42 91.2 °F /  32.9 °C 59.7 °F /  15.4 °C 30 in /  1016.1 hPa SSE 2 mph /  3.2 km/h 9 mph /  14.5 km/h 35 % 0 in /  0.0 mm
16:47 91.2 °F /  32.9 °C 59.7 °F /  15.4 °C 30 in /  1016.1 hPa SSE 2 mph /  3.2 km/h 9 mph /  14.5 km/h 35 % 0 in /  0.0 mm
16:52 91.2 °F /  32.9 °C 59.7 °F /  15.4 °C 30 in /  1016.1 hPa ESE 4 mph /  6.4 km/h 9 mph /  14.5 km/h 35 % 0 in /  0.0 mm
16:57 91.2 °F /  32.9 °C 60.6 °F /  15.9 °C 30 in /  1016.1 hPa SSE 5 mph /  8.0 km/h 9 mph /  14.5 km/h 36 % 0 in /  0.0 mm
17:02 91.8 °F /  33.2 °C 60.3 °F /  15.7 °C 30 in /  1015.8 hPa South 2 mph /  3.2 km/h 9 mph /  14.5 km/h 35 % 0 in /  0.0 mm
17:07 92.1 °F /  33.4 °C 60.4 °F /  15.8 °C 30 in /  1015.8 hPa ESE 8 mph /  12.9 km/h 9 mph /  14.5 km/h 35 % 0 in /  0.0 mm
17:12 92.8 °F /  33.8 °C 61.9 °F /  16.6 °C 30 in /  1015.8 hPa South 3 mph /  4.8 km/h 10 mph /  16.1 km/h 36 % 0 in /  0.0 mm
17:17 93.6 °F /  34.2 °C 61 °F /  16.1 °C 30 in /  1015.8 hPa West 1 mph /  1.6 km/h 10 mph /  16.1 km/h 34 % 0 in /  0.0 mm
17:22 93.7 °F /  34.3 °C 60.3 °F /  15.7 °C 30 in /  1015.8 hPa ESE 2 mph /  3.2 km/h 10 mph /  16.1 km/h 33 % 0 in /  0.0 mm
17:27 93.7 °F /  34.3 °C 62.8 °F /  17.1 °C 30 in /  1015.8 hPa South 4 mph /  6.4 km/h 10 mph /  16.1 km/h 36 % 0 in /  0.0 mm
17:32 93.9 °F /  34.4 °C 63 °F /  17.2 °C 30 in /  1015.8 hPa South 4 mph /  6.4 km/h 9 mph /  14.5 km/h 36 % 0 in /  0.0 mm
17:42 93.2 °F /  34.0 °C 60.6 °F /  15.9 °C 30 in /  1015.8 hPa SSE 7 mph /  11.3 km/h 10 mph /  16.1 km/h 34 % 0 in /  0.0 mm
17:47 92.7 °F /  33.7 °C 61.9 °F /  16.6 °C 30 in /  1015.8 hPa SW 5 mph /  8.0 km/h 10 mph /  16.1 km/h 36 % 0 in /  0.0 mm
17:52 92.1 °F /  33.4 °C 61.3 °F /  16.3 °C 30 in /  1015.8 hPa SSE 2 mph /  3.2 km/h 10 mph /  16.1 km/h 36 % 0 in /  0.0 mm
17:57 91.6 °F /  33.1 °C 61.7 °F /  16.5 °C 30 in /  1015.8 hPa SSW 3 mph /  4.8 km/h 10 mph /  16.1 km/h 37 % 0 in /  0.0 mm
18:02 91.2 °F /  32.9 °C 61.3 °F /  16.3 °C 30 in /  1015.8 hPa SE 5 mph /  8.0 km/h 8 mph /  12.9 km/h 37 % 0 in /  0.0 mm
18:07 90.9 °F /  32.7 °C 61.7 °F /  16.5 °C 30 in /  1015.8 hPa SE 1 mph /  1.6 km/h 10 mph /  16.1 km/h 38 % 0 in /  0.0 mm
18:12 90.3 °F /  32.4 °C 61.3 °F /  16.3 °C 30 in /  1015.8 hPa SSE 4 mph /  6.4 km/h 10 mph /  16.1 km/h 38 % 0 in /  0.0 mm
18:17 90.1 °F /  32.3 °C 62.6 °F /  17.0 °C 30 in /  1015.8 hPa ESE 3 mph /  4.8 km/h 11 mph /  17.7 km/h 40 % 0 in /  0.0 mm
18:22 90.7 °F /  32.6 °C 63 °F /  17.2 °C 30 in /  1015.8 hPa SW 4 mph /  6.4 km/h 11 mph /  17.7 km/h 40 % 0 in /  0.0 mm
18:27 91.2 °F /  32.9 °C 63.5 °F /  17.5 °C 30 in /  1015.5 hPa SSE 3 mph /  4.8 km/h 10 mph /  16.1 km/h 40 % 0 in /  0.0 mm
18:32 91.4 °F /  33.0 °C 63 °F /  17.2 °C 30 in /  1015.8 hPa SW 5 mph /  8.0 km/h 9 mph /  14.5 km/h 39 % 0 in /  0.0 mm
18:42 90.7 °F /  32.6 °C 62.2 °F /  16.8 °C 30 in /  1015.8 hPa SSE 3 mph /  4.8 km/h 11 mph /  17.7 km/h 39 % 0 in /  0.0 mm
18:47 90.3 °F /  32.4 °C 62.8 °F /  17.1 °C 30 in /  1015.8 hPa SSE 7 mph /  11.3 km/h 11 mph /  17.7 km/h 40 % 0 in /  0.0 mm
18:52 90 °F /  32.2 °C 61 °F /  16.1 °C 30 in /  1015.8 hPa SSW 5 mph /  8.0 km/h 11 mph /  17.7 km/h 38 % 0 in /  0.0 mm
18:57 89.2 °F /  31.8 °C 62.4 °F /  16.9 °C 30 in /  1015.8 hPa SW 5 mph /  8.0 km/h 11 mph /  17.7 km/h 41 % 0 in /  0.0 mm
19:02 88.9 °F /  31.6 °C 62.1 °F /  16.7 °C 30 in /  1015.8 hPa SSW 4 mph /  6.4 km/h 11 mph /  17.7 km/h 41 % 0 in /  0.0 mm
19:07 88.7 °F /  31.5 °C 62.6 °F /  17.0 °C 30 in /  1015.8 hPa South 5 mph /  8.0 km/h 10 mph /  16.1 km/h 42 % 0 in /  0.0 mm
19:12 88.5 °F /  31.4 °C 62.4 °F /  16.9 °C 30 in /  1015.5 hPa SW 3 mph /  4.8 km/h 8 mph /  12.9 km/h 42 % 0 in /  0.0 mm
19:17 88.3 °F /  31.3 °C 63.7 °F /  17.6 °C 30 in /  1015.5 hPa SSW 4 mph /  6.4 km/h 8 mph /  12.9 km/h 44 % 0 in /  0.0 mm
19:22 88.3 °F /  31.3 °C 63.7 °F /  17.6 °C 30 in /  1015.8 hPa SSE 3 mph /  4.8 km/h 8 mph /  12.9 km/h 44 % 0 in /  0.0 mm
19:27 88.3 °F /  31.3 °C 63 °F /  17.2 °C 30 in /  1015.8 hPa SSE 2 mph /  3.2 km/h 6 mph /  9.7 km/h 43 % 0 in /  0.0 mm
19:32 88.2 °F /  31.2 °C 62.8 °F /  17.1 °C 30 in /  1015.5 hPa South 3 mph /  4.8 km/h 6 mph /  9.7 km/h 43 % 0 in /  0.0 mm
19:37 88.2 °F /  31.2 °C 62.8 °F /  17.1 °C 30 in /  1015.5 hPa South 2 mph /  3.2 km/h 6 mph /  9.7 km/h 43 % 0 in /  0.0 mm
19:42 88.2 °F /  31.2 °C 63.5 °F /  17.5 °C 30 in /  1015.5 hPa SSW 1 mph /  1.6 km/h 6 mph /  9.7 km/h 44 % 0 in /  0.0 mm
19:47 88.2 °F /  31.2 °C 63.5 °F /  17.5 °C 30 in /  1015.8 hPa SE 2 mph /  3.2 km/h 6 mph /  9.7 km/h 44 % 0 in /  0.0 mm
19:52 88 °F /  31.1 °C 64 °F /  17.8 °C 30 in /  1015.8 hPa SE 1 mph /  1.6 km/h 5 mph /  8.0 km/h 45 % 0 in /  0.0 mm
19:57 87.8 °F /  31.0 °C 64.4 °F /  18.0 °C 30 in /  1015.5 hPa SSE 1 mph /  1.6 km/h 5 mph /  8.0 km/h 46 % 0 in /  0.0 mm
20:02 87.6 °F /  30.9 °C 63.7 °F /  17.6 °C 30 in /  1015.5 hPa SSE 1 mph /  1.6 km/h 5 mph /  8.0 km/h 45 % 0 in /  0.0 mm
20:07 87.4 °F /  30.8 °C 62.8 °F /  17.1 °C 30 in /  1015.5 hPa ESE 2 mph /  3.2 km/h 3 mph /  4.8 km/h 44 % 0 in /  0.0 mm
20:12 87.4 °F /  30.8 °C 62.8 °F /  17.1 °C 30 in /  1015.5 hPa SE 3 mph /  4.8 km/h 4 mph /  6.4 km/h 44 % 0 in /  0.0 mm
20:17 87.1 °F /  30.6 °C 63.1 °F /  17.3 °C 30 in /  1015.8 hPa SW 1 mph /  1.6 km/h 4 mph /  6.4 km/h 45 % 0 in /  0.0 mm
20:22 86.7 °F /  30.4 °C 63.5 °F /  17.5 °C 30 in /  1015.8 hPa SSE 2 mph /  3.2 km/h 5 mph /  8.0 km/h 46 % 0 in /  0.0 mm
20:27 86.5 °F /  30.3 °C 62.6 °F /  17.0 °C 30 in /  1015.8 hPa SSE 1 mph /  1.6 km/h 5 mph /  8.0 km/h 45 % 0 in /  0.0 mm
20:32 86.4 °F /  30.2 °C 63.1 °F /  17.3 °C 30 in /  1015.8 hPa SE 1 mph /  1.6 km/h 5 mph /  8.0 km/h 46 % 0 in /  0.0 mm
20:37 86.2 °F /  30.1 °C 63 °F /  17.2 °C 30 in /  1015.8 hPa Calm   3 mph /  4.8 km/h 46 % 0 in /  0.0 mm
20:42 85.8 °F /  29.9 °C 63.3 °F /  17.4 °C 30 in /  1015.8 hPa Calm   3 mph /  4.8 km/h 47 % 0 in /  0.0 mm
20:47 85.3 °F /  29.6 °C 64 °F /  17.8 °C 30 in /  1016.1 hPa SSW 2 mph /  3.2 km/h 3 mph /  4.8 km/h 49 % 0 in /  0.0 mm
20:52 84.4 °F /  29.1 °C 63.1 °F /  17.3 °C 30 in /  1016.1 hPa SW 3 mph /  4.8 km/h 5 mph /  8.0 km/h 49 % 0 in /  0.0 mm
20:57 84 °F /  28.9 °C 62.8 °F /  17.1 °C 30 in /  1016.1 hPa SW 3 mph /  4.8 km/h 5 mph /  8.0 km/h 49 % 0 in /  0.0 mm
21:02 84 °F /  28.9 °C 62.2 °F /  16.8 °C 30 in /  1016.1 hPa SW 3 mph /  4.8 km/h 4 mph /  6.4 km/h 48 % 0 in /  0.0 mm
21:12 84.6 °F /  29.2 °C 62.8 °F /  17.1 °C 30 in /  1016.1 hPa West 5 mph /  8.0 km/h 6 mph /  9.7 km/h 48 % 0 in /  0.0 mm
21:17 84.7 °F /  29.3 °C 62.2 °F /  16.8 °C 30 in /  1016.1 hPa SW 3 mph /  4.8 km/h 6 mph /  9.7 km/h 47 % 0 in /  0.0 mm
21:22 84.9 °F /  29.4 °C 62.4 °F /  16.9 °C 30 in /  1016.1 hPa West 3 mph /  4.8 km/h 10 mph /  16.1 km/h 47 % 0 in /  0.0 mm
21:27 84.9 °F /  29.4 °C 61.9 °F /  16.6 °C 30 in /  1016.5 hPa SSW 3 mph /  4.8 km/h 10 mph /  16.1 km/h 46 % 0 in /  0.0 mm
21:32 84.7 °F /  29.3 °C 61.7 °F /  16.5 °C 30 in /  1016.5 hPa West 5 mph /  8.0 km/h 10 mph /  16.1 km/h 46 % 0 in /  0.0 mm
21:37 84.6 °F /  29.2 °C 62.1 °F /  16.7 °C 30 in /  1016.5 hPa WSW 3 mph /  4.8 km/h 9 mph /  14.5 km/h 47 % 0 in /  0.0 mm
21:42 84.6 °F /  29.2 °C 62.1 °F /  16.7 °C 30 in /  1016.5 hPa WSW 4 mph /  6.4 km/h 11 mph /  17.7 km/h 47 % 0 in /  0.0 mm
21:47 84.4 °F /  29.1 °C 61.9 °F /  16.6 °C 30 in /  1016.8 hPa WSW 4 mph /  6.4 km/h 11 mph /  17.7 km/h 47 % 0 in /  0.0 mm
21:52 84 °F /  28.9 °C 62.2 °F /  16.8 °C 30 in /  1016.8 hPa WSW 2 mph /  3.2 km/h 11 mph /  17.7 km/h 48 % 0 in /  0.0 mm
21:57 83.7 °F /  28.7 °C 62.4 °F /  16.9 °C 30 in /  1016.8 hPa WSW 1 mph /  1.6 km/h 8 mph /  12.9 km/h 49 % 0 in /  0.0 mm
22:02 83.5 °F /  28.6 °C 62.2 °F /  16.8 °C 30 in /  1016.8 hPa WSW 4 mph /  6.4 km/h 8 mph /  12.9 km/h 49 % 0 in /  0.0 mm
22:12 83.1 °F /  28.4 °C 63.1 °F /  17.3 °C 30 in /  1017.2 hPa SW 2 mph /  3.2 km/h 7 mph /  11.3 km/h 51 % 0 in /  0.0 mm
22:17 82.9 °F /  28.3 °C 63.5 °F /  17.5 °C 30 in /  1017.2 hPa SW 3 mph /  4.8 km/h 10 mph /  16.1 km/h 52 % 0 in /  0.0 mm
22:22 82.8 °F /  28.2 °C 63.9 °F /  17.7 °C 30 in /  1017.2 hPa WSW 3 mph /  4.8 km/h 10 mph /  16.1 km/h 53 % 0 in /  0.0 mm
22:27 82.6 °F /  28.1 °C 64.2 °F /  17.9 °C 30 in /  1017.2 hPa WSW 4 mph /  6.4 km/h 10 mph /  16.1 km/h 54 % 0 in /  0.0 mm
22:32 82.2 °F /  27.9 °C 63.9 °F /  17.7 °C 30.1 in /  1017.5 hPa SW 6 mph /  9.7 km/h 9 mph /  14.5 km/h 54 % 0 in /  0.0 mm
22:37 82 °F /  27.8 °C 64.2 °F /  17.9 °C 30.1 in /  1017.5 hPa WSW 5 mph /  8.0 km/h 9 mph /  14.5 km/h 55 % 0 in /  0.0 mm
22:42 81.9 °F /  27.7 °C 64.6 °F /  18.1 °C 30.1 in /  1017.5 hPa West 3 mph /  4.8 km/h 9 mph /  14.5 km/h 56 % 0 in /  0.0 mm
22:47 81.7 °F /  27.6 °C 64.4 °F /  18.0 °C 30.1 in /  1017.5 hPa SW 2 mph /  3.2 km/h 8 mph /  12.9 km/h 56 % 0 in /  0.0 mm
22:52 81.3 °F /  27.4 °C 64.6 °F /  18.1 °C 30.1 in /  1017.5 hPa South 2 mph /  3.2 km/h 8 mph /  12.9 km/h 57 % 0 in /  0.0 mm
22:57 81.1 °F /  27.3 °C 64.9 °F /  18.3 °C 30.1 in /  1017.5 hPa South 2 mph /  3.2 km/h 5 mph /  8.0 km/h 58 % 0 in /  0.0 mm
23:02 80.8 °F /  27.1 °C 65.1 °F /  18.4 °C 30.1 in /  1017.5 hPa SSW 1 mph /  1.6 km/h 5 mph /  8.0 km/h 59 % 0 in /  0.0 mm
23:07 80.2 °F /  26.8 °C 65.1 °F /  18.4 °C 30.1 in /  1017.8 hPa SW 1 mph /  1.6 km/h 4 mph /  6.4 km/h 60 % 0 in /  0.0 mm
23:12 79.9 °F /  26.6 °C 64.8 °F /  18.2 °C 30.1 in /  1017.8 hPa SSW 3 mph /  4.8 km/h 3 mph /  4.8 km/h 60 % 0 in /  0.0 mm
23:17 79.9 °F /  26.6 °C 64.8 °F /  18.2 °C 30.1 in /  1017.8 hPa WSW 1 mph /  1.6 km/h 3 mph /  4.8 km/h 60 % 0 in /  0.0 mm
23:22 79.9 °F /  26.6 °C 65.3 °F /  18.5 °C 30.1 in /  1017.8 hPa SSW 3 mph /  4.8 km/h 4 mph /  6.4 km/h 61 % 0 in /  0.0 mm
23:27 79.7 °F /  26.5 °C 65.1 °F /  18.4 °C 30.1 in /  1017.8 hPa SSW 1 mph /  1.6 km/h 4 mph /  6.4 km/h 61 % 0 in /  0.0 mm
23:32 79.5 °F /  26.4 °C 65.3 °F /  18.5 °C 30.1 in /  1017.8 hPa Calm   5 mph /  8.0 km/h 62 % 0 in /  0.0 mm
23:37 79.3 °F /  26.3 °C 65.1 °F /  18.4 °C 30.1 in /  1017.8 hPa SSE 1 mph /  1.6 km/h 6 mph /  9.7 km/h 62 % 0 in /  0.0 mm
23:42 79.2 °F /  26.2 °C 65.5 °F /  18.6 °C 30.1 in /  1017.8 hPa Calm   6 mph /  9.7 km/h 63 % 0 in /  0.0 mm
23:47 78.8 °F /  26.0 °C 65.1 °F /  18.4 °C 30.1 in /  1017.8 hPa Calm   4 mph /  6.4 km/h 63 % 0 in /  0.0 mm
23:52 78.6 °F /  25.9 °C 64.9 °F /  18.3 °C 30.1 in /  1017.8 hPa Calm   3 mph /  4.8 km/h 63 % 0 in /  0.0 mm
23:57 78.4 °F /  25.8 °C 65.3 °F /  18.5 °C 30.1 in /  1017.8 hPa Calm   2 mph /  3.2 km/h 64 % 0 in /  0.0 mm
Meteo18
Compliments of Weather Underground - 4 mb

Script developed by  Jim McMurry - jmcmurry@mwt.net Adapted for the template by  Wim van der Kuil - Leuven-Template.eu

You find our weather info also at:

European Weather Network

Weather Underground

Equipment we use:

Weather-station
Davis Vue

Weather-program
Meteohub

Weather-server
Raspberry PI 2 B+

Provider
1 and 1

Davis Vue

Meteohub

Raspberry PI 2 B+

1 and 1